Impacts METAR Board
IDs:

KCLE - Cleveland/Hopkins In, OH, US

Updated at: 1300 UTC 07 Jul 2020
Potential Impact None Slight Moderate High
Time 07/01Z 07/02Z 07/03Z 07/04Z 07/05Z 07/06Z 07/07Z 07/08Z 07/09Z 07/10Z 07/11Z 07/12Z 07/13Z
Temp85 84 82 77 75 75 74 74 72 72 73 78 82
Dewpt55 57 57 59 60 61 62 63 63 64 63 64 66
Altim30.01 30.02 30.02 30.03 30.03 30.03 30.01 30.01 30.00 30.02 30.01 30.02 30.02
VIS10 10 10 10 10 10 10 10 10 10 10 10 10
CIG-- -- -- 80 -- -- -- -- -- 120 -- -- --
CoverFEWFEWFEWBKNSCTSCTCLRFEWSCTBKNFEWFEWFEW
FltCatVFRVFRVFRVFRVFRVFRVFRVFRVFRVFRVFRVFRVFR
WX--------------------------
WDir20100100160150170170170170240190200220
WSpd5 5 5 6 6 4 5 6 3 3 3 7 6
WGst-- -- -- -- -- -- -- -- -- -- -- -- --
Raw hourly METARs
KCLE 070051Z 02005KT 10SM FEW250 29/13 A3001 RMK AO2 SLP156 T02940128
KCLE 070151Z 10005KT 10SM FEW250 29/14 A3002 RMK AO2 SLP156 T02890139
KCLE 070251Z 10005KT 10SM FEW250 28/14 A3002 RMK AO2 SLP159 T02780139 53005
KCLE 070351Z 16006KT 10SM BKN080 BKN250 25/15 A3003 RMK AO2 SLP161 T02500150
KCLE 070451Z 15006KT 10SM SCT090 SCT250 24/16 A3003 RMK AO2 SLP162 T02390156 403330156
KCLE 070551Z 17004KT 10SM FEW095 SCT250 24/16 A3003 RMK AO2 SLP159 T02390161 10311 20239 50001
KCLE 070651Z 17005KT 10SM CLR 23/17 A3001 RMK AO2 SLP153 T02330167
KCLE 070751Z 17006KT 10SM FEW100 23/17 A3001 RMK AO2 SLP154 T02330172
KCLE 070851Z 17003KT 10SM SCT110 22/17 A3000 RMK AO2 SLP152 T02220172 56007
KCLE 070951Z 24003KT 10SM BKN120 22/18 A3002 RMK AO2 SLP157 T02220178
KCLE 071051Z 19003KT 10SM FEW120 23/17 A3001 RMK AO2 SLP156 T02280172
KCLE 071151Z 20007KT 10SM FEW120 26/18 A3002 RMK AO2 SLP156 T02560178 10256 20211 51004
KCLE 071251Z 22006KT 10SM FEW250 28/19 A3002 RMK AO2 SLP157 T02780189



Page loaded:  13:49 UTC  |   06:49 AM Pacific  |   07:49 AM Mountain  |   08:49 AM Central  |   09:49 AM Eastern

 

ADVISORIES

FORECASTS

FORECASTS

OBSERVATIONS

USER TOOLS

ABOUT US